sensor_id;sensor_type;location;lat;lon;timestamp;temperature;humidity
20291;DHT22;10304;51.074;13.754;2023-04-29T00:01:19;14.90;1.00
20291;DHT22;10304;51.074;13.754;2023-04-29T00:03:46;14.90;1.00
20291;DHT22;10304;51.074;13.754;2023-04-29T00:06:13;14.90;1.00
20291;DHT22;10304;51.074;13.754;2023-04-29T00:08:41;14.90;1.00
20291;DHT22;10304;51.074;13.754;2023-04-29T00:11:08;14.90;1.00
20291;DHT22;10304;51.074;13.754;2023-04-29T00:13:36;14.90;1.00
20291;DHT22;10304;51.074;13.754;2023-04-29T00:16:07;14.90;1.00
20291;DHT22;10304;51.074;13.754;2023-04-29T00:18:37;14.90;1.00
20291;DHT22;10304;51.074;13.754;2023-04-29T00:21:04;14.90;48.50
20291;DHT22;10304;51.074;13.754;2023-04-29T00:23:33;14.90;99.90
20291;DHT22;10304;51.074;13.754;2023-04-29T00:26:00;14.80;99.90
20291;DHT22;10304;51.074;13.754;2023-04-29T00:28:27;14.80;99.90
20291;DHT22;10304;51.074;13.754;2023-04-29T00:30:56;14.90;99.90
20291;DHT22;10304;51.074;13.754;2023-04-29T00:33:23;14.80;99.90
20291;DHT22;10304;51.074;13.754;2023-04-29T00:35:50;14.90;99.90
20291;DHT22;10304;51.074;13.754;2023-04-29T00:38:17;14.90;99.90
20291;DHT22;10304;51.074;13.754;2023-04-29T00:40:44;14.80;99.90
20291;DHT22;10304;51.074;13.754;2023-04-29T00:43:11;14.80;99.90
20291;DHT22;10304;51.074;13.754;2023-04-29T00:45:38;14.90;99.90
20291;DHT22;10304;51.074;13.754;2023-04-29T00:48:05;14.90;99.90
20291;DHT22;10304;51.074;13.754;2023-04-29T00:50:33;14.90;99.90
20291;DHT22;10304;51.074;13.754;2023-04-29T00:53:00;14.90;99.90
20291;DHT22;10304;51.074;13.754;2023-04-29T00:55:27;14.90;99.90
20291;DHT22;10304;51.074;13.754;2023-04-29T00:57:56;14.80;99.90
20291;DHT22;10304;51.074;13.754;2023-04-29T01:00:22;14.80;99.90
20291;DHT22;10304;51.074;13.754;2023-04-29T01:02:51;14.80;99.90
20291;DHT22;10304;51.074;13.754;2023-04-29T01:05:19;14.90;1.00
20291;DHT22;10304;51.074;13.754;2023-04-29T01:08:03;14.90;99.90
20291;DHT22;10304;51.074;13.754;2023-04-29T01:10:40;14.80;1.00
20291;DHT22;10304;51.074;13.754;2023-04-29T01:13:16;14.80;1.00
20291;DHT22;10304;51.074;13.754;2023-04-29T01:16:00;14.80;1.00
20291;DHT22;10304;51.074;13.754;2023-04-29T01:18:52;14.90;99.90
20291;DHT22;10304;51.074;13.754;2023-04-29T01:21:20;14.80;1.00
20291;DHT22;10304;51.074;13.754;2023-04-29T01:23:48;14.80;1.00
20291;DHT22;10304;51.074;13.754;2023-04-29T01:26:22;14.90;1.00
20291;DHT22;10304;51.074;13.754;2023-04-29T01:31:50;14.80;1.00
20291;DHT22;10304;51.074;13.754;2023-04-29T01:42:36;14.90;1.00
20291;DHT22;10304;51.074;13.754;2023-04-29T01:45:07;14.90;1.00
20291;DHT22;10304;51.074;13.754;2023-04-29T01:47:35;14.90;1.00
20291;DHT22;10304;51.074;13.754;2023-04-29T01:50:03;14.80;1.00
20291;DHT22;10304;51.074;13.754;2023-04-29T01:52:30;14.80;1.00
20291;DHT22;10304;51.074;13.754;2023-04-29T01:54:57;14.80;1.00
20291;DHT22;10304;51.074;13.754;2023-04-29T01:57:24;14.80;10.20
20291;DHT22;10304;51.074;13.754;2023-04-29T01:59:50;14.70;1.00
20291;DHT22;10304;51.074;13.754;2023-04-29T02:02:18;14.70;99.90
20291;DHT22;10304;51.074;13.754;2023-04-29T02:04:47;14.70;99.90
20291;DHT22;10304;51.074;13.754;2023-04-29T02:07:16;14.60;99.90
20291;DHT22;10304;51.074;13.754;2023-04-29T02:09:42;14.60;99.90
20291;DHT22;10304;51.074;13.754;2023-04-29T02:12:09;14.60;1.00
20291;DHT22;10304;51.074;13.754;2023-04-29T02:14:36;14.60;1.00
20291;DHT22;10304;51.074;13.754;2023-04-29T02:17:03;14.60;1.00
20291;DHT22;10304;51.074;13.754;2023-04-29T02:19:30;14.60;1.00
20291;DHT22;10304;51.074;13.754;2023-04-29T02:21:57;14.60;1.00
20291;DHT22;10304;51.074;13.754;2023-04-29T02:24:23;14.60;99.90
20291;DHT22;10304;51.074;13.754;2023-04-29T02:26:50;14.60;99.90
20291;DHT22;10304;51.074;13.754;2023-04-29T02:29:18;14.60;99.90
20291;DHT22;10304;51.074;13.754;2023-04-29T02:31:44;14.60;1.00
20291;DHT22;10304;51.074;13.754;2023-04-29T02:34:12;14.60;1.00
20291;DHT22;10304;51.074;13.754;2023-04-29T02:36:39;14.50;99.90
20291;DHT22;10304;51.074;13.754;2023-04-29T02:39:06;14.50;99.90
20291;DHT22;10304;51.074;13.754;2023-04-29T02:41:35;14.50;99.90
20291;DHT22;10304;51.074;13.754;2023-04-29T02:44:01;14.40;99.90
20291;DHT22;10304;51.074;13.754;2023-04-29T02:46:28;14.40;99.90
20291;DHT22;10304;51.074;13.754;2023-04-29T02:48:55;14.40;1.00
20291;DHT22;10304;51.074;13.754;2023-04-29T02:51:22;14.40;1.00
20291;DHT22;10304;51.074;13.754;2023-04-29T02:53:49;14.40;1.00
20291;DHT22;10304;51.074;13.754;2023-04-29T02:56:16;14.40;69.60
20291;DHT22;10304;51.074;13.754;2023-04-29T02:58:43;14.30;99.90
20291;DHT22;10304;51.074;13.754;2023-04-29T03:01:10;14.40;99.90
20291;DHT22;10304;51.074;13.754;2023-04-29T03:03:37;14.40;99.90
20291;DHT22;10304;51.074;13.754;2023-04-29T03:06:04;14.40;99.90
20291;DHT22;10304;51.074;13.754;2023-04-29T03:08:30;14.40;99.90
20291;DHT22;10304;51.074;13.754;2023-04-29T03:10:58;14.40;1.00
20291;DHT22;10304;51.074;13.754;2023-04-29T03:13:25;14.30;1.00
20291;DHT22;10304;51.074;13.754;2023-04-29T03:15:52;14.40;1.00
20291;DHT22;10304;51.074;13.754;2023-04-29T03:18:19;14.30;1.00
20291;DHT22;10304;51.074;13.754;2023-04-29T03:20:47;14.40;1.00
20291;DHT22;10304;51.074;13.754;2023-04-29T03:23:14;14.40;1.00
20291;DHT22;10304;51.074;13.754;2023-04-29T03:25:40;14.30;1.00
20291;DHT22;10304;51.074;13.754;2023-04-29T03:28:09;14.40;99.90
20291;DHT22;10304;51.074;13.754;2023-04-29T03:30:36;14.40;99.90
20291;DHT22;10304;51.074;13.754;2023-04-29T03:33:03;14.40;99.90
20291;DHT22;10304;51.074;13.754;2023-04-29T03:35:30;14.40;99.90
20291;DHT22;10304;51.074;13.754;2023-04-29T03:37:57;14.40;1.00
20291;DHT22;10304;51.074;13.754;2023-04-29T03:40:24;14.40;1.00
20291;DHT22;10304;51.074;13.754;2023-04-29T03:42:53;14.40;1.00
20291;DHT22;10304;51.074;13.754;2023-04-29T03:45:20;14.40;1.00
20291;DHT22;10304;51.074;13.754;2023-04-29T03:47:47;14.50;1.00
20291;DHT22;10304;51.074;13.754;2023-04-29T03:50:14;14.50;1.00
20291;DHT22;10304;51.074;13.754;2023-04-29T03:52:41;14.40;1.00
20291;DHT22;10304;51.074;13.754;2023-04-29T03:55:08;14.50;1.00
20291;DHT22;10304;51.074;13.754;2023-04-29T03:57:35;14.50;99.90
20291;DHT22;10304;51.074;13.754;2023-04-29T04:00:09;14.50;1.00
20291;DHT22;10304;51.074;13.754;2023-04-29T04:02:38;14.50;1.00
20291;DHT22;10304;51.074;13.754;2023-04-29T04:05:05;14.50;99.90
20291;DHT22;10304;51.074;13.754;2023-04-29T04:07:32;14.50;1.00
20291;DHT22;10304;51.074;13.754;2023-04-29T04:09:59;14.50;99.90
20291;DHT22;10304;51.074;13.754;2023-04-29T04:12:25;14.50;7.00
20291;DHT22;10304;51.074;13.754;2023-04-29T04:14:52;14.60;21.10
20291;DHT22;10304;51.074;13.754;2023-04-29T04:17:20;14.60;99.90
20291;DHT22;10304;51.074;13.754;2023-04-29T04:19:47;14.60;1.00
20291;DHT22;10304;51.074;13.754;2023-04-29T04:22:14;14.60;29.50
20291;DHT22;10304;51.074;13.754;2023-04-29T04:24:42;14.70;1.00
20291;DHT22;10304;51.074;13.754;2023-04-29T04:27:09;14.70;1.00
20291;DHT22;10304;51.074;13.754;2023-04-29T04:29:36;14.70;17.60
20291;DHT22;10304;51.074;13.754;2023-04-29T04:32:04;14.80;1.00
20291;DHT22;10304;51.074;13.754;2023-04-29T04:34:31;14.80;1.00
20291;DHT22;10304;51.074;13.754;2023-04-29T04:36:58;14.80;1.00
20291;DHT22;10304;51.074;13.754;2023-04-29T04:39:24;14.90;1.00
20291;DHT22;10304;51.074;13.754;2023-04-29T04:41:52;14.90;1.00
20291;DHT22;10304;51.074;13.754;2023-04-29T04:44:19;15.00;1.00
20291;DHT22;10304;51.074;13.754;2023-04-29T04:46:46;15.00;1.00
20291;DHT22;10304;51.074;13.754;2023-04-29T04:49:16;15.00;1.00
20291;DHT22;10304;51.074;13.754;2023-04-29T04:51:43;15.10;1.00
20291;DHT22;10304;51.074;13.754;2023-04-29T04:54:10;15.10;1.00
20291;DHT22;10304;51.074;13.754;2023-04-29T04:56:38;15.10;99.90
20291;DHT22;10304;51.074;13.754;2023-04-29T04:59:05;15.10;1.00
20291;DHT22;10304;51.074;13.754;2023-04-29T05:01:31;15.20;99.90
20291;DHT22;10304;51.074;13.754;2023-04-29T05:03:59;15.20;99.90
20291;DHT22;10304;51.074;13.754;2023-04-29T05:06:28;15.10;1.00
20291;DHT22;10304;51.074;13.754;2023-04-29T05:08:55;15.20;1.00
20291;DHT22;10304;51.074;13.754;2023-04-29T05:11:22;15.20;1.00
20291;DHT22;10304;51.074;13.754;2023-04-29T05:13:49;15.20;1.00
20291;DHT22;10304;51.074;13.754;2023-04-29T05:16:16;15.20;1.00
20291;DHT22;10304;51.074;13.754;2023-04-29T05:18:44;15.20;1.00
20291;DHT22;10304;51.074;13.754;2023-04-29T05:21:12;15.20;99.90
20291;DHT22;10304;51.074;13.754;2023-04-29T05:23:43;15.30;99.90
20291;DHT22;10304;51.074;13.754;2023-04-29T05:26:10;15.30;1.00
20291;DHT22;10304;51.074;13.754;2023-04-29T05:28:42;15.30;1.00
20291;DHT22;10304;51.074;13.754;2023-04-29T05:31:09;15.40;1.00
20291;DHT22;10304;51.074;13.754;2023-04-29T05:33:37;15.40;99.90
20291;DHT22;10304;51.074;13.754;2023-04-29T05:36:14;15.50;1.00
20291;DHT22;10304;51.074;13.754;2023-04-29T05:38:44;15.50;1.00
20291;DHT22;10304;51.074;13.754;2023-04-29T05:41:12;15.50;1.00
20291;DHT22;10304;51.074;13.754;2023-04-29T05:43:43;15.60;1.00
20291;DHT22;10304;51.074;13.754;2023-04-29T05:46:10;15.60;1.00
20291;DHT22;10304;51.074;13.754;2023-04-29T05:48:42;15.70;1.00
20291;DHT22;10304;51.074;13.754;2023-04-29T05:51:10;15.70;1.00
20291;DHT22;10304;51.074;13.754;2023-04-29T05:53:38;15.80;1.00
20291;DHT22;10304;51.074;13.754;2023-04-29T05:56:06;15.80;1.00
20291;DHT22;10304;51.074;13.754;2023-04-29T05:58:34;15.90;1.00
20291;DHT22;10304;51.074;13.754;2023-04-29T06:01:01;15.90;99.90
20291;DHT22;10304;51.074;13.754;2023-04-29T06:03:31;16.00;99.90
20291;DHT22;10304;51.074;13.754;2023-04-29T06:05:59;16.00;1.00
20291;DHT22;10304;51.074;13.754;2023-04-29T06:08:26;16.10;1.00
20291;DHT22;10304;51.074;13.754;2023-04-29T06:10:53;16.20;1.00
20291;DHT22;10304;51.074;13.754;2023-04-29T06:13:20;16.30;1.00
20291;DHT22;10304;51.074;13.754;2023-04-29T06:15:48;16.30;99.90
20291;DHT22;10304;51.074;13.754;2023-04-29T06:18:14;16.40;1.00
20291;DHT22;10304;51.074;13.754;2023-04-29T06:20:41;16.40;1.00
20291;DHT22;10304;51.074;13.754;2023-04-29T06:23:08;16.50;1.00
20291;DHT22;10304;51.074;13.754;2023-04-29T06:25:35;16.50;1.00
20291;DHT22;10304;51.074;13.754;2023-04-29T06:28:02;16.60;1.00
20291;DHT22;10304;51.074;13.754;2023-04-29T06:30:30;16.70;99.90
20291;DHT22;10304;51.074;13.754;2023-04-29T06:32:56;16.70;99.90
20291;DHT22;10304;51.074;13.754;2023-04-29T06:35:23;16.70;1.00
20291;DHT22;10304;51.074;13.754;2023-04-29T06:37:50;16.70;99.90
20291;DHT22;10304;51.074;13.754;2023-04-29T06:40:18;16.80;99.90
20291;DHT22;10304;51.074;13.754;2023-04-29T06:42:45;16.90;99.90
20291;DHT22;10304;51.074;13.754;2023-04-29T06:45:12;16.90;99.90
20291;DHT22;10304;51.074;13.754;2023-04-29T06:47:39;17.00;94.50
20291;DHT22;10304;51.074;13.754;2023-04-29T06:50:06;17.10;1.00
20291;DHT22;10304;51.074;13.754;2023-04-29T06:52:35;17.10;1.00
20291;DHT22;10304;51.074;13.754;2023-04-29T06:55:02;17.10;1.00
20291;DHT22;10304;51.074;13.754;2023-04-29T06:57:29;17.10;1.00
20291;DHT22;10304;51.074;13.754;2023-04-29T06:59:57;17.10;1.00
20291;DHT22;10304;51.074;13.754;2023-04-29T07:02:24;17.20;1.00
20291;DHT22;10304;51.074;13.754;2023-04-29T07:04:51;17.20;1.00
20291;DHT22;10304;51.074;13.754;2023-04-29T07:07:18;17.10;99.90
20291;DHT22;10304;51.074;13.754;2023-04-29T07:09:45;17.20;1.00
20291;DHT22;10304;51.074;13.754;2023-04-29T07:12:12;17.10;1.00
20291;DHT22;10304;51.074;13.754;2023-04-29T07:14:39;17.10;1.00
20291;DHT22;10304;51.074;13.754;2023-04-29T07:17:06;17.10;1.00
20291;DHT22;10304;51.074;13.754;2023-04-29T07:19:33;17.10;1.00
20291;DHT22;10304;51.074;13.754;2023-04-29T07:22:00;17.00;1.00
20291;DHT22;10304;51.074;13.754;2023-04-29T07:24:27;17.00;99.90
20291;DHT22;10304;51.074;13.754;2023-04-29T07:26:54;17.00;99.90
20291;DHT22;10304;51.074;13.754;2023-04-29T07:29:21;17.00;1.00
20291;DHT22;10304;51.074;13.754;2023-04-29T07:31:48;16.90;1.00
20291;DHT22;10304;51.074;13.754;2023-04-29T07:34:14;16.70;99.90
20291;DHT22;10304;51.074;13.754;2023-04-29T07:36:55;16.60;99.90
20291;DHT22;10304;51.074;13.754;2023-04-29T07:39:23;16.50;1.00
20291;DHT22;10304;51.074;13.754;2023-04-29T07:41:49;16.40;99.90
20291;DHT22;10304;51.074;13.754;2023-04-29T07:44:17;16.50;1.00
20291;DHT22;10304;51.074;13.754;2023-04-29T07:46:44;16.50;1.00
20291;DHT22;10304;51.074;13.754;2023-04-29T07:49:11;16.50;1.00
20291;DHT22;10304;51.074;13.754;2023-04-29T07:51:41;16.50;1.00
20291;DHT22;10304;51.074;13.754;2023-04-29T07:54:09;16.60;1.00
20291;DHT22;10304;51.074;13.754;2023-04-29T07:56:36;16.50;1.00
20291;DHT22;10304;51.074;13.754;2023-04-29T07:59:02;16.50;1.00
20291;DHT22;10304;51.074;13.754;2023-04-29T08:01:29;16.60;1.00
20291;DHT22;10304;51.074;13.754;2023-04-29T08:03:56;16.60;1.00
20291;DHT22;10304;51.074;13.754;2023-04-29T08:06:23;16.60;99.90
20291;DHT22;10304;51.074;13.754;2023-04-29T08:08:50;16.60;99.90
20291;DHT22;10304;51.074;13.754;2023-04-29T08:11:18;16.70;99.90
20291;DHT22;10304;51.074;13.754;2023-04-29T08:13:46;16.70;99.90
20291;DHT22;10304;51.074;13.754;2023-04-29T08:16:13;16.70;99.90
20291;DHT22;10304;51.074;13.754;2023-04-29T08:18:40;16.80;99.90
20291;DHT22;10304;51.074;13.754;2023-04-29T08:21:08;16.80;99.90
20291;DHT22;10304;51.074;13.754;2023-04-29T08:23:37;17.00;99.90
20291;DHT22;10304;51.074;13.754;2023-04-29T08:26:04;17.00;1.00
20291;DHT22;10304;51.074;13.754;2023-04-29T08:28:31;17.10;1.00
20291;DHT22;10304;51.074;13.754;2023-04-29T08:30:58;17.10;1.00
20291;DHT22;10304;51.074;13.754;2023-04-29T08:33:25;17.10;1.00
20291;DHT22;10304;51.074;13.754;2023-04-29T08:35:58;17.00;99.90
20291;DHT22;10304;51.074;13.754;2023-04-29T08:38:26;17.00;99.90
20291;DHT22;10304;51.074;13.754;2023-04-29T08:40:53;17.00;99.90
20291;DHT22;10304;51.074;13.754;2023-04-29T08:43:21;17.00;99.90
20291;DHT22;10304;51.074;13.754;2023-04-29T08:45:48;16.90;99.90
20291;DHT22;10304;51.074;13.754;2023-04-29T08:48:16;16.80;1.00
20291;DHT22;10304;51.074;13.754;2023-04-29T08:50:44;16.80;1.00
20291;DHT22;10304;51.074;13.754;2023-04-29T08:53:13;16.80;1.00
20291;DHT22;10304;51.074;13.754;2023-04-29T08:55:45;16.80;99.90
20291;DHT22;10304;51.074;13.754;2023-04-29T08:58:13;16.80;99.90
20291;DHT22;10304;51.074;13.754;2023-04-29T09:00:42;16.70;99.90
20291;DHT22;10304;51.074;13.754;2023-04-29T09:03:29;16.80;99.90
20291;DHT22;10304;51.074;13.754;2023-04-29T09:05:59;16.80;1.00
20291;DHT22;10304;51.074;13.754;2023-04-29T09:08:26;16.80;1.00
20291;DHT22;10304;51.074;13.754;2023-04-29T09:10:53;16.80;1.00
20291;DHT22;10304;51.074;13.754;2023-04-29T09:13:28;16.70;99.90
20291;DHT22;10304;51.074;13.754;2023-04-29T09:15:56;16.70;99.90
20291;DHT22;10304;51.074;13.754;2023-04-29T09:18:43;16.70;99.90
20291;DHT22;10304;51.074;13.754;2023-04-29T09:21:15;16.60;1.00
20291;DHT22;10304;51.074;13.754;2023-04-29T09:23:46;16.60;1.00
20291;DHT22;10304;51.074;13.754;2023-04-29T09:26:14;16.60;1.00
20291;DHT22;10304;51.074;13.754;2023-04-29T09:28:41;16.60;1.00
20291;DHT22;10304;51.074;13.754;2023-04-29T09:31:11;16.60;1.00
20291;DHT22;10304;51.074;13.754;2023-04-29T09:33:54;16.60;50.50
20291;DHT22;10304;51.074;13.754;2023-04-29T09:39:09;16.70;99.90
20291;DHT22;10304;51.074;13.754;2023-04-29T09:44:09;16.60;1.00
20291;DHT22;10304;51.074;13.754;2023-04-29T09:46:36;16.50;30.30
20291;DHT22;10304;51.074;13.754;2023-04-29T09:49:05;16.50;99.90
20291;DHT22;10304;51.074;13.754;2023-04-29T09:51:59;16.50;76.40
20291;DHT22;10304;51.074;13.754;2023-04-29T09:54:28;16.40;99.90
20291;DHT22;10304;51.074;13.754;2023-04-29T09:57:11;16.50;1.00
20291;DHT22;10304;51.074;13.754;2023-04-29T09:59:43;16.50;99.90
20291;DHT22;10304;51.074;13.754;2023-04-29T10:02:17;16.60;99.90
20291;DHT22;10304;51.074;13.754;2023-04-29T10:04:52;16.70;99.90
20291;DHT22;10304;51.074;13.754;2023-04-29T10:07:20;16.80;1.00
20291;DHT22;10304;51.074;13.754;2023-04-29T10:09:48;16.80;1.00
20291;DHT22;10304;51.074;13.754;2023-04-29T10:12:18;16.80;1.00
20291;DHT22;10304;51.074;13.754;2023-04-29T10:17:32;16.90;1.00
20291;DHT22;10304;51.074;13.754;2023-04-29T10:20:04;17.00;99.90
20291;DHT22;10304;51.074;13.754;2023-04-29T10:22:52;17.10;26.20
20291;DHT22;10304;51.074;13.754;2023-04-29T10:25:24;17.20;1.00
20291;DHT22;10304;51.074;13.754;2023-04-29T10:27:59;17.20;1.00
20291;DHT22;10304;51.074;13.754;2023-04-29T10:30:27;17.30;99.90
20291;DHT22;10304;51.074;13.754;2023-04-29T10:32:55;17.30;99.90
20291;DHT22;10304;51.074;13.754;2023-04-29T10:35:22;17.30;99.90
20291;DHT22;10304;51.074;13.754;2023-04-29T10:37:59;17.30;99.90
20291;DHT22;10304;51.074;13.754;2023-04-29T10:43:25;17.40;1.00
20291;DHT22;10304;51.074;13.754;2023-04-29T10:48:49;17.50;1.00
20291;DHT22;10304;51.074;13.754;2023-04-29T10:54:08;17.70;1.00
20291;DHT22;10304;51.074;13.754;2023-04-29T10:56:40;17.80;99.90
20291;DHT22;10304;51.074;13.754;2023-04-29T11:02:07;17.70;1.00
20291;DHT22;10304;51.074;13.754;2023-04-29T11:05:09;17.70;1.00
20291;DHT22;10304;51.074;13.754;2023-04-29T11:07:44;17.70;1.00
20291;DHT22;10304;51.074;13.754;2023-04-29T11:15:36;17.70;1.00
20291;DHT22;10304;51.074;13.754;2023-04-29T11:18:30;17.70;1.00
20291;DHT22;10304;51.074;13.754;2023-04-29T11:21:12;17.60;1.00
20291;DHT22;10304;51.074;13.754;2023-04-29T11:23:39;17.60;1.00
20291;DHT22;10304;51.074;13.754;2023-04-29T11:33:34;17.60;1.00
20291;DHT22;10304;51.074;13.754;2023-04-29T11:36:06;17.80;1.00
20291;DHT22;10304;51.074;13.754;2023-04-29T11:38:49;17.80;1.00
20291;DHT22;10304;51.074;13.754;2023-04-29T11:44:45;18.00;1.00
20291;DHT22;10304;51.074;13.754;2023-04-29T11:47:17;18.10;1.00
20291;DHT22;10304;51.074;13.754;2023-04-29T11:49:51;18.20;99.90
20291;DHT22;10304;51.074;13.754;2023-04-29T11:52:22;18.30;99.90
20291;DHT22;10304;51.074;13.754;2023-04-29T11:55:47;18.50;99.90
20291;DHT22;10304;51.074;13.754;2023-04-29T11:59:18;18.70;99.90
20291;DHT22;10304;51.074;13.754;2023-04-29T12:02:44;18.80;99.90
20291;DHT22;10304;51.074;13.754;2023-04-29T12:13:35;18.60;99.90
20291;DHT22;10304;51.074;13.754;2023-04-29T12:19:50;18.40;99.90
20291;DHT22;10304;51.074;13.754;2023-04-29T12:22:21;18.40;99.90
20291;DHT22;10304;51.074;13.754;2023-04-29T12:24:51;18.30;99.90
20291;DHT22;10304;51.074;13.754;2023-04-29T12:27:20;18.10;99.90
20291;DHT22;10304;51.074;13.754;2023-04-29T12:29:51;17.90;99.90
20291;DHT22;10304;51.074;13.754;2023-04-29T12:32:22;17.70;99.90
20291;DHT22;10304;51.074;13.754;2023-04-29T12:34:50;17.60;99.90
20291;DHT22;10304;51.074;13.754;2023-04-29T12:37:21;17.40;99.90
20291;DHT22;10304;51.074;13.754;2023-04-29T12:39:54;17.30;1.00
20291;DHT22;10304;51.074;13.754;2023-04-29T12:42:22;17.20;1.00
20291;DHT22;10304;51.074;13.754;2023-04-29T12:44:49;17.10;1.00
20291;DHT22;10304;51.074;13.754;2023-04-29T12:47:16;17.10;1.00
20291;DHT22;10304;51.074;13.754;2023-04-29T12:49:44;17.10;1.00
20291;DHT22;10304;51.074;13.754;2023-04-29T12:52:12;17.10;1.00
20291;DHT22;10304;51.074;13.754;2023-04-29T12:54:39;17.00;1.00
20291;DHT22;10304;51.074;13.754;2023-04-29T12:57:09;16.90;1.00
20291;DHT22;10304;51.074;13.754;2023-04-29T12:59:41;16.90;1.00
20291;DHT22;10304;51.074;13.754;2023-04-29T13:02:08;16.80;1.00
20291;DHT22;10304;51.074;13.754;2023-04-29T13:04:35;16.70;1.00
20291;DHT22;10304;51.074;13.754;2023-04-29T13:07:06;16.70;1.00
20291;DHT22;10304;51.074;13.754;2023-04-29T13:09:36;16.60;1.00
20291;DHT22;10304;51.074;13.754;2023-04-29T13:12:07;16.40;1.00
20291;DHT22;10304;51.074;13.754;2023-04-29T13:14:35;16.30;1.00
20291;DHT22;10304;51.074;13.754;2023-04-29T13:17:02;16.10;29.60
20291;DHT22;10304;51.074;13.754;2023-04-29T13:19:29;16.00;99.90
20291;DHT22;10304;51.074;13.754;2023-04-29T13:22:13;16.00;99.90
20291;DHT22;10304;51.074;13.754;2023-04-29T13:24:40;15.90;99.90
20291;DHT22;10304;51.074;13.754;2023-04-29T13:27:07;15.90;99.90
20291;DHT22;10304;51.074;13.754;2023-04-29T13:29:34;15.80;99.90
20291;DHT22;10304;51.074;13.754;2023-04-29T13:32:01;15.70;99.90
20291;DHT22;10304;51.074;13.754;2023-04-29T13:34:28;15.60;1.00
20291;DHT22;10304;51.074;13.754;2023-04-29T13:36:55;15.60;1.00
20291;DHT22;10304;51.074;13.754;2023-04-29T13:39:22;15.60;1.00
20291;DHT22;10304;51.074;13.754;2023-04-29T13:41:49;15.40;1.00
20291;DHT22;10304;51.074;13.754;2023-04-29T13:44:17;15.30;1.00
20291;DHT22;10304;51.074;13.754;2023-04-29T13:47:01;15.20;1.00
20291;DHT22;10304;51.074;13.754;2023-04-29T13:49:31;15.10;99.90
20291;DHT22;10304;51.074;13.754;2023-04-29T13:52:01;15.00;99.90
20291;DHT22;10304;51.074;13.754;2023-04-29T13:54:31;15.00;1.00
20291;DHT22;10304;51.074;13.754;2023-04-29T13:57:01;15.00;1.00
20291;DHT22;10304;51.074;13.754;2023-04-29T13:59:34;14.90;1.00
20291;DHT22;10304;51.074;13.754;2023-04-29T14:02:15;14.80;1.00
20291;DHT22;10304;51.074;13.754;2023-04-29T14:04:51;14.70;1.00
20291;DHT22;10304;51.074;13.754;2023-04-29T14:07:19;14.70;1.00
20291;DHT22;10304;51.074;13.754;2023-04-29T14:09:46;14.70;1.00
20291;DHT22;10304;51.074;13.754;2023-04-29T14:12:12;14.70;1.00
20291;DHT22;10304;51.074;13.754;2023-04-29T14:14:39;14.80;1.00
20291;DHT22;10304;51.074;13.754;2023-04-29T14:17:06;14.70;1.00
20291;DHT22;10304;51.074;13.754;2023-04-29T14:19:33;14.80;1.00
20291;DHT22;10304;51.074;13.754;2023-04-29T14:21:59;14.70;1.00
20291;DHT22;10304;51.074;13.754;2023-04-29T14:24:26;14.70;1.00
20291;DHT22;10304;51.074;13.754;2023-04-29T14:26:53;14.70;1.00
20291;DHT22;10304;51.074;13.754;2023-04-29T14:29:20;14.70;99.90
20291;DHT22;10304;51.074;13.754;2023-04-29T14:31:46;14.70;99.90
20291;DHT22;10304;51.074;13.754;2023-04-29T14:34:13;14.70;99.90
20291;DHT22;10304;51.074;13.754;2023-04-29T14:36:40;14.70;1.00
20291;DHT22;10304;51.074;13.754;2023-04-29T14:39:07;14.80;1.00
20291;DHT22;10304;51.074;13.754;2023-04-29T14:41:34;14.70;1.00
20291;DHT22;10304;51.074;13.754;2023-04-29T14:44:00;14.70;33.20
20291;DHT22;10304;51.074;13.754;2023-04-29T14:46:27;14.80;99.90
20291;DHT22;10304;51.074;13.754;2023-04-29T14:48:55;14.80;97.30
20291;DHT22;10304;51.074;13.754;2023-04-29T14:51:21;14.80;1.00
20291;DHT22;10304;51.074;13.754;2023-04-29T14:53:48;14.80;1.00
20291;DHT22;10304;51.074;13.754;2023-04-29T14:56:16;14.90;1.00
20291;DHT22;10304;51.074;13.754;2023-04-29T14:58:43;14.80;1.00
20291;DHT22;10304;51.074;13.754;2023-04-29T15:01:10;14.90;1.00
20291;DHT22;10304;51.074;13.754;2023-04-29T15:03:41;14.90;1.00
20291;DHT22;10304;51.074;13.754;2023-04-29T15:06:11;14.80;1.00
20291;DHT22;10304;51.074;13.754;2023-04-29T15:08:38;14.80;1.00
20291;DHT22;10304;51.074;13.754;2023-04-29T15:11:05;14.90;1.00
20291;DHT22;10304;51.074;13.754;2023-04-29T15:13:32;14.90;1.00
20291;DHT22;10304;51.074;13.754;2023-04-29T15:15:58;14.90;1.00
20291;DHT22;10304;51.074;13.754;2023-04-29T15:18:25;14.90;1.00
20291;DHT22;10304;51.074;13.754;2023-04-29T15:20:53;14.90;1.00
20291;DHT22;10304;51.074;13.754;2023-04-29T15:23:19;15.00;1.00
20291;DHT22;10304;51.074;13.754;2023-04-29T15:25:46;15.00;1.00
20291;DHT22;10304;51.074;13.754;2023-04-29T15:28:13;15.00;99.90
20291;DHT22;10304;51.074;13.754;2023-04-29T15:30:40;15.00;99.90
20291;DHT22;10304;51.074;13.754;2023-04-29T15:33:07;15.00;99.90
20291;DHT22;10304;51.074;13.754;2023-04-29T15:35:34;15.00;99.90
20291;DHT22;10304;51.074;13.754;2023-04-29T15:38:02;15.10;99.90
20291;DHT22;10304;51.074;13.754;2023-04-29T15:40:28;15.20;99.90
20291;DHT22;10304;51.074;13.754;2023-04-29T15:42:56;15.20;99.90
20291;DHT22;10304;51.074;13.754;2023-04-29T15:45:23;15.30;99.90
20291;DHT22;10304;51.074;13.754;2023-04-29T15:47:50;15.30;99.90
20291;DHT22;10304;51.074;13.754;2023-04-29T15:50:17;15.30;99.90
20291;DHT22;10304;51.074;13.754;2023-04-29T15:52:44;15.40;70.80
20291;DHT22;10304;51.074;13.754;2023-04-29T15:55:11;15.30;1.00
20291;DHT22;10304;51.074;13.754;2023-04-29T15:57:38;15.40;1.00
20291;DHT22;10304;51.074;13.754;2023-04-29T16:00:08;15.40;1.00
20291;DHT22;10304;51.074;13.754;2023-04-29T16:02:35;15.40;1.00
20291;DHT22;10304;51.074;13.754;2023-04-29T16:05:02;15.40;1.00
20291;DHT22;10304;51.074;13.754;2023-04-29T16:07:29;15.40;1.00
20291;DHT22;10304;51.074;13.754;2023-04-29T16:09:56;15.40;1.00
20291;DHT22;10304;51.074;13.754;2023-04-29T16:12:23;15.40;1.00
20291;DHT22;10304;51.074;13.754;2023-04-29T16:14:50;15.30;1.00
20291;DHT22;10304;51.074;13.754;2023-04-29T16:17:17;15.30;1.00
20291;DHT22;10304;51.074;13.754;2023-04-29T16:19:43;15.30;1.00
20291;DHT22;10304;51.074;13.754;2023-04-29T16:22:10;15.30;1.00
20291;DHT22;10304;51.074;13.754;2023-04-29T16:24:37;15.30;8.60
20291;DHT22;10304;51.074;13.754;2023-04-29T16:27:04;15.30;1.00
20291;DHT22;10304;51.074;13.754;2023-04-29T16:29:31;15.40;1.00
20291;DHT22;10304;51.074;13.754;2023-04-29T16:31:58;15.40;1.00
20291;DHT22;10304;51.074;13.754;2023-04-29T16:34:25;15.40;1.00
20291;DHT22;10304;51.074;13.754;2023-04-29T16:36:52;15.40;1.00